Time;durP1;ratioP1;P1;durP2;ratioP2;P2;SDS_P1;SDS_P2;PMS_P1;PMS_P2;Temp;Humidity;BMP_temperature;BMP_pressure;BME280_temperature;BME280_humidity;BME280_pressure;Samples;Min_cycle;Max_cycle;Signal;HPM_P1;HPM_P2
2020/12/22 00:00:31;;;;;;;;;;;;;;;20.65;36.97;102107.34;5099623;28;740;-43
2020/12/22 00:02:57;;;;;;;;;;;;;;;20.36;37.57;102116.03;5099293;28;1906;-44
2020/12/22 00:05:22;;;;;;;;;;;;;;;19.94;38.73;102111.34;5099093;28;1012;-44
2020/12/22 00:07:48;;;;;;;;;;;;;;;19.47;39.62;102113.66;5099539;28;733;-46
2020/12/22 00:10:13;;;;;;;;;;;;;;;19.76;38.98;102115.28;5098852;28;815;-45
2020/12/22 00:12:38;;;;;;;;;;;;;;;20.66;36.97;102118.16;5099287;28;775;-44
2020/12/22 00:15:05;;;;;;;;;;;;;;;20.40;37.42;102122.69;5099208;28;783;-44
2020/12/22 00:17:30;;;;;;;;;;;;;;;20.12;38.09;102118.38;5098925;28;763;-45
2020/12/22 00:19:56;;;;;;;;;;;;;;;19.48;39.33;102112.53;5098618;28;1055;-45
2020/12/22 00:22:21;;;;;;;;;;;;;;;19.38;39.98;102117.97;5098764;28;1913;-44
2020/12/22 00:24:47;;;;;;;;;;;;;;;20.47;37.66;102120.53;5098672;28;932;-45
2020/12/22 00:27:12;;;;;;;;;;;;;;;20.32;37.79;102112.13;5098745;28;855;-45
2020/12/22 00:29:38;;;;;;;;;;;;;;;20.16;38.20;102109.28;5098636;28;842;-47
2020/12/22 00:32:03;;;;;;;;;;;;;;;19.83;38.86;102105.72;5098609;28;854;-45
2020/12/22 00:34:29;;;;;;;;;;;;;;;19.15;39.99;102122.69;5098528;28;786;-46
2020/12/22 00:36:54;;;;;;;;;;;;;;;20.08;38.27;102114.47;5098266;28;953;-45
2020/12/22 00:39:20;;;;;;;;;;;;;;;20.83;36.88;102106.91;5098451;28;826;-44
2020/12/22 00:41:45;;;;;;;;;;;;;;;20.17;37.91;102116.47;5098321;28;1976;-46
2020/12/22 00:44:10;;;;;;;;;;;;;;;20.16;37.93;102114.81;5105921;28;1129;-44
2020/12/22 00:46:36;;;;;;;;;;;;;;;19.67;39.14;102125.97;5118701;28;889;-44
2020/12/22 00:49:01;;;;;;;;;;;;;;;19.79;39.07;102118.38;5118676;28;827;-44
2020/12/22 00:51:27;;;;;;;;;;;;;;;20.65;37.04;102121.16;5103096;28;1144;-44
2020/12/22 00:53:57;;;;;;;;;;;;;;;20.22;37.91;102120.38;5096923;28;1232;-43
2020/12/22 00:56:23;;;;;;;;;;;;;;;20.02;38.31;102113.59;5096038;28;1264;-45
2020/12/22 00:58:52;;;;;;;;;;;;;;;19.47;39.29;102110.91;5096970;28;1555;-45
2020/12/22 01:01:17;;;;;;;;;;;;;;;19.48;39.79;102115.28;5098400;28;771;-45
2020/12/22 01:03:43;;;;;;;;;;;;;;;20.52;37.35;102103.97;5098218;28;1909;-46
2020/12/22 01:06:09;;;;;;;;;;;;;;;20.48;37.45;102100.09;5096427;28;1329;-43
2020/12/22 01:08:34;;;;;;;;;;;;;;;20.22;38.09;102095.50;5097955;28;783;-44
2020/12/22 01:11:00;;;;;;;;;;;;;;;20.07;38.18;102099.00;5097699;28;807;-43
2020/12/22 01:13:25;;;;;;;;;;;;;;;19.56;39.26;102099.34;5097785;28;919;-45
2020/12/22 01:15:50;;;;;;;;;;;;;;;20.08;38.48;102104.25;5097866;28;794;-45
2020/12/22 01:18:16;;;;;;;;;;;;;;;20.50;37.24;102097.88;5097573;28;755;-44
2020/12/22 01:20:41;;;;;;;;;;;;;;;20.08;38.21;102101.50;5097277;28;1217;-44
2020/12/22 01:23:07;;;;;;;;;;;;;;;19.91;38.55;102100.78;5097869;28;1968;-46
2020/12/22 01:25:32;;;;;;;;;;;;;;;19.37;39.88;102110.78;5097453;28;728;-45
2020/12/22 01:27:57;;;;;;;;;;;;;;;20.21;38.04;102102.94;5097469;28;736;-45
2020/12/22 01:30:23;;;;;;;;;;;;;;;20.72;36.71;102099.69;5097591;28;827;-44
2020/12/22 01:32:50;;;;;;;;;;;;;;;20.22;37.92;102101.03;5097435;28;763;-45
2020/12/22 01:35:15;;;;;;;;;;;;;;;20.03;38.23;102093.16;5097108;28;1079;-45
2020/12/22 01:37:40;;;;;;;;;;;;;;;19.54;39.46;102090.53;5097500;28;736;-46
2020/12/22 01:40:06;;;;;;;;;;;;;;;19.92;38.72;102088.66;5097407;28;812;-47
2020/12/22 01:42:31;;;;;;;;;;;;;;;20.74;36.90;102086.41;5097132;28;1969;-47
2020/12/22 01:44:57;;;;;;;;;;;;;;;20.34;37.65;102076.78;5111073;28;1164;-45
2020/12/22 01:47:22;;;;;;;;;;;;;;;20.22;38.09;102085.28;5117878;28;791;-48
2020/12/22 01:49:47;;;;;;;;;;;;;;;19.69;39.08;102087.91;5115618;28;952;-46
2020/12/22 01:52:13;;;;;;;;;;;;;;;19.39;39.74;102083.78;5097401;28;811;-45
2020/12/22 01:54:38;;;;;;;;;;;;;;;20.50;37.29;102088.75;5097469;28;765;-45
2020/12/22 01:57:14;;;;;;;;;;;;;;;20.55;37.24;102079.66;5097008;28;783;-45
2020/12/22 01:59:39;;;;;;;;;;;;;;;20.20;37.88;102086.66;5097132;28;802;-45
2020/12/22 02:02:05;;;;;;;;;;;;;;;19.88;38.54;102084.75;5096656;28;1905;-45
2020/12/22 02:04:30;;;;;;;;;;;;;;;19.20;40.05;102090.75;5095719;28;755;-43
2020/12/22 02:06:56;;;;;;;;;;;;;;;20.33;37.71;102088.94;5096400;28;966;-43
2020/12/22 02:09:21;;;;;;;;;;;;;;;20.45;37.48;102081.25;5095784;28;834;-45
2020/12/22 02:11:47;;;;;;;;;;;;;;;20.26;37.75;102080.03;5097054;28;732;-45
2020/12/22 02:14:12;;;;;;;;;;;;;;;19.83;38.54;102091.09;5096831;28;740;-45
2020/12/22 02:16:38;;;;;;;;;;;;;;;19.35;39.96;102092.81;5096935;28;866;-44
2020/12/22 02:19:03;;;;;;;;;;;;;;;20.31;37.80;102077.31;5096553;28;1010;-44
2020/12/22 02:21:29;;;;;;;;;;;;;;;21.07;36.14;102078.78;5096391;28;949;-45
2020/12/22 02:23:54;;;;;;;;;;;;;;;21.38;35.74;102081.63;5096650;28;783;-46
2020/12/22 02:26:20;;;;;;;;;;;;;;;20.52;37.23;102084.63;5096866;28;783;-44
2020/12/22 02:28:46;;;;;;;;;;;;;;;20.55;37.15;102087.94;5096904;28;775;-47
2020/12/22 02:31:11;;;;;;;;;;;;;;;19.78;38.72;102086.34;5096553;28;1458;-44
2020/12/22 02:33:36;;;;;;;;;;;;;;;19.20;40.28;102088.00;5096613;28;799;-46
2020/12/22 02:36:02;;;;;;;;;;;;;;;20.27;37.95;102092.75;5096211;28;1047;-45
2020/12/22 02:38:27;;;;;;;;;;;;;;;20.70;36.94;102090.00;5096435;28;748;-47
2020/12/22 02:40:53;;;;;;;;;;;;;;;20.32;37.80;102098.31;5096961;28;751;-45
2020/12/22 02:43:18;;;;;;;;;;;;;;;20.21;38.07;102093.84;5096364;28;1922;-46
2020/12/22 02:45:44;;;;;;;;;;;;;;;19.55;39.42;102089.44;5076272;28;855;-43
2020/12/22 02:48:12;;;;;;;;;;;;;;;19.55;39.61;102090.25;5076512;28;815;-44
2020/12/22 02:50:38;;;;;;;;;;;;;;;20.51;37.31;102088.50;5083394;28;1004;-45
2020/12/22 02:53:03;;;;;;;;;;;;;;;20.19;38.09;102085.81;5096662;28;870;-45
2020/12/22 02:55:29;;;;;;;;;;;;;;;20.08;38.51;102087.69;5096260;28;843;-46
2020/12/22 02:57:54;;;;;;;;;;;;;;;19.86;38.53;102081.44;5096135;28;747;-47
2020/12/22 03:00:20;;;;;;;;;;;;;;;19.47;39.91;102087.97;5096770;28;770;-44
2020/12/22 03:02:45;;;;;;;;;;;;;;;20.51;37.31;102088.50;5096494;28;1917;-45
2020/12/22 03:05:11;;;;;;;;;;;;;;;20.43;37.40;102086.25;5096499;28;968;-46
2020/12/22 03:07:36;;;;;;;;;;;;;;;20.05;38.45;102084.59;5096255;28;747;-46
2020/12/22 03:10:02;;;;;;;;;;;;;;;19.81;38.96;102083.06;5096156;28;771;-46
2020/12/22 03:12:28;;;;;;;;;;;;;;;19.24;40.10;102089.13;5096076;28;775;-46
2020/12/22 03:14:53;;;;;;;;;;;;;;;20.20;38.30;102081.13;5096328;28;799;-45
2020/12/22 03:17:19;;;;;;;;;;;;;;;20.63;37.16;102084.69;5096142;28;763;-45
2020/12/22 03:19:44;;;;;;;;;;;;;;;20.08;38.27;102084.09;5098674;28;1019;-47
2020/12/22 03:22:10;;;;;;;;;;;;;;;19.91;38.63;102084.22;5100148;28;1914;-45
2020/12/22 03:24:35;;;;;;;;;;;;;;;19.40;39.80;102085.41;5100160;28;828;-45
2020/12/22 03:27:00;;;;;;;;;;;;;;;19.60;39.52;102089.47;5099742;28;881;-48
2020/12/22 03:29:26;;;;;;;;;;;;;;;20.63;37.44;102084.69;5099951;28;863;-45
2020/12/22 03:31:51;;;;;;;;;;;;;;;20.26;37.75;102091.09;5099691;28;542;-46
2020/12/22 03:34:17;;;;;;;;;;;;;;;20.19;37.97;102102.41;5099726;28;1024;-45
2020/12/22 03:36:43;;;;;;;;;;;;;;;19.86;38.58;102093.31;5099528;28;953;-44
2020/12/22 03:39:08;;;;;;;;;;;;;;;19.70;39.32;102094.25;5099430;28;767;-48
2020/12/22 03:41:34;;;;;;;;;;;;;;;20.71;36.96;102099.97;5099608;28;2062;-45
2020/12/22 03:43:59;;;;;;;;;;;;;;;20.32;37.58;102103.84;5105599;28;1133;-46
2020/12/22 03:46:26;;;;;;;;;;;;;;;20.21;38.10;102096.59;5119713;28;834;-46
2020/12/22 03:48:51;;;;;;;;;;;;;;;19.93;38.71;102093.91;5120018;28;785;-45
2020/12/22 03:51:17;;;;;;;;;;;;;;;19.48;39.71;102092.41;5106788;28;988;-45
2020/12/22 03:53:42;;;;;;;;;;;;;;;20.54;37.34;102091.81;5099113;28;806;-47
2020/12/22 03:56:08;;;;;;;;;;;;;;;20.48;37.41;102094.56;5099442;28;810;-46
2020/12/22 03:58:33;;;;;;;;;;;;;;;20.28;37.75;102091.66;5099731;28;812;-46
2020/12/22 04:00:59;;;;;;;;;;;;;;;19.86;38.66;102082.25;5099001;28;794;-44
2020/12/22 04:03:25;;;;;;;;;;;;;;;19.38;39.84;102093.13;5099309;28;1985;-44
2020/12/22 04:05:50;;;;;;;;;;;;;;;20.02;38.67;102086.00;5098989;28;954;-46
2020/12/22 04:08:16;;;;;;;;;;;;;;;20.77;36.76;102091.41;5098823;28;1017;-46
2020/12/22 04:10:41;;;;;;;;;;;;;;;20.37;37.58;102101.13;5099001;28;802;-46
2020/12/22 04:13:07;;;;;;;;;;;;;;;20.05;38.20;102087.38;5099201;28;779;-49
2020/12/22 04:15:32;;;;;;;;;;;;;;;19.42;39.70;102082.41;5099171;28;874;-46
2020/12/22 04:17:58;;;;;;;;;;;;;;;19.35;40.05;102096.41;5098904;28;755;-48
2020/12/22 04:20:23;;;;;;;;;;;;;;;20.44;37.63;102087.91;5098419;28;1023;-45
2020/12/22 04:22:48;;;;;;;;;;;;;;;20.80;36.75;102088.13;5098553;28;1914;-45
2020/12/22 04:25:14;;;;;;;;;;;;;;;20.23;37.74;102089.72;5100920;28;848;-45
2020/12/22 04:27:39;;;;;;;;;;;;;;;19.91;38.61;102089.75;5097323;28;775;-45
2020/12/22 04:30:05;;;;;;;;;;;;;;;19.61;39.38;102091.97;5097634;28;843;-45
2020/12/22 04:32:30;;;;;;;;;;;;;;;20.05;38.24;102090.97;5098089;28;893;-45
2020/12/22 04:34:56;;;;;;;;;;;;;;;20.79;36.83;102077.28;5098201;28;823;-45
2020/12/22 04:37:21;;;;;;;;;;;;;;;20.38;37.53;102088.97;5098393;28;735;-46
2020/12/22 04:39:47;;;;;;;;;;;;;;;20.24;37.71;102098.81;5098604;28;728;-46
2020/12/22 04:42:12;;;;;;;;;;;;;;;19.61;39.43;102091.13;5098379;28;1913;-46
2020/12/22 04:44:38;;;;;;;;;;;;;;;19.26;40.05;102100.72;5109401;28;1105;-45
2020/12/22 04:47:04;;;;;;;;;;;;;;;19.96;38.53;102098.94;5104318;28;850;-47
2020/12/22 04:49:29;;;;;;;;;;;;;;;20.74;36.82;102091.94;5098257;28;819;-47
2020/12/22 04:51:55;;;;;;;;;;;;;;;20.10;38.26;102099.28;5097129;28;958;-45
2020/12/22 04:54:20;;;;;;;;;;;;;;;20.08;38.25;102104.25;5097031;28;863;-48
2020/12/22 04:56:46;;;;;;;;;;;;;;;19.86;38.84;102103.53;5095823;28;875;-52
2020/12/22 04:59:12;;;;;;;;;;;;;;;19.37;39.83;102096.97;5085311;28;1399;-44
2020/12/22 05:01:37;;;;;;;;;;;;;;;20.37;37.60;102098.38;5093211;28;1976;-47
2020/12/22 05:04:03;;;;;;;;;;;;;;;20.52;37.23;102097.59;5081705;28;1632;-51
2020/12/22 05:06:28;;;;;;;;;;;;;;;20.15;38.16;102091.03;5091765;28;965;-48
2020/12/22 05:08:53;;;;;;;;;;;;;;;19.92;38.52;102091.41;5097690;28;807;-45
2020/12/22 05:11:19;;;;;;;;;;;;;;;19.47;39.32;102093.50;5097731;28;796;-45
2020/12/22 05:13:47;;;;;;;;;;;;;;;20.07;38.44;102099.00;5097716;28;743;-46
2020/12/22 05:16:13;;;;;;;;;;;;;;;20.80;36.65;102101.09;5097733;28;812;-46
2020/12/22 05:18:38;;;;;;;;;;;;;;;20.27;37.74;102099.13;5097368;28;1054;-46
2020/12/22 05:21:04;;;;;;;;;;;;;;;20.09;38.15;102094.88;5097405;28;973;-46
2020/12/22 05:23:29;;;;;;;;;;;;;;;19.67;39.13;102092.88;5097461;28;1914;-45
2020/12/22 05:25:54;;;;;;;;;;;;;;;20.02;38.45;102093.44;5095917;28;1042;-47
2020/12/22 05:28:20;;;;;;;;;;;;;;;20.71;36.35;102091.66;5097643;28;744;-45
2020/12/22 05:30:46;;;;;;;;;;;;;;;20.20;37.31;102103.22;5097286;28;859;-51
2020/12/22 05:33:12;;;;;;;;;;;;;;;20.20;37.38;102105.97;5096175;28;763;-46
2020/12/22 05:35:47;;;;;;;;;;;;;;;19.78;37.99;102100.13;5097029;28;855;-46
2020/12/22 05:38:17;;;;;;;;;;;;;;;19.45;39.07;102101.22;5097159;28;839;-45
2020/12/22 05:40:43;;;;;;;;;;;;;;;20.48;36.87;102102.00;5096821;28;827;-46
2020/12/22 05:43:08;;;;;;;;;;;;;;;20.51;36.78;102116.13;5097105;28;1905;-45
2020/12/22 05:45:37;;;;;;;;;;;;;;;20.14;37.45;102116.16;5115900;28;1291;-45
2020/12/22 05:48:03;;;;;;;;;;;;;;;20.02;37.78;102110.84;5117527;28;795;-47
2020/12/22 05:50:29;;;;;;;;;;;;;;;19.31;39.39;102120.09;5111054;28;948;-46
2020/12/22 05:52:55;;;;;;;;;;;;;;;19.66;38.94;102130.66;5097061;28;802;-45
2020/12/22 05:55:30;;;;;;;;;;;;;;;20.49;36.90;102126.59;5097161;28;818;-48
2020/12/22 05:58:08;;;;;;;;;;;;;;;20.15;37.49;102123.34;5096951;28;767;-45
2020/12/22 06:00:34;;;;;;;;;;;;;;;20.26;37.57;102127.00;5096928;28;787;-45
2020/12/22 06:03:02;;;;;;;;;;;;;;;19.64;38.61;102120.97;5097228;28;1909;-45
2020/12/22 06:05:27;;;;;;;;;;;;;;;19.82;38.56;102130.81;5096796;28;972;-44
2020/12/22 06:07:52;;;;;;;;;;;;;;;20.63;36.66;102123.38;5095305;28;751;-45
2020/12/22 06:10:18;;;;;;;;;;;;;;;20.33;37.29;102125.69;5095665;28;759;-45
2020/12/22 06:12:43;;;;;;;;;;;;;;;20.00;37.82;102124.06;5096036;28;808;-47
2020/12/22 06:15:09;;;;;;;;;;;;;;;19.83;38.47;102122.28;5096412;28;803;-48
2020/12/22 06:17:34;;;;;;;;;;;;;;;19.33;39.34;102128.94;5095207;28;931;-47
2020/12/22 06:19:59;;;;;;;;;;;;;;;20.32;37.54;102128.72;5094650;28;1076;-49
2020/12/22 06:22:25;;;;;;;;;;;;;;;20.52;36.68;102128.00;5095038;28;1981;-47
2020/12/22 06:24:52;;;;;;;;;;;;;;;20.06;37.90;102122.16;5096667;28;851;-46
2020/12/22 06:27:17;;;;;;;;;;;;;;;19.83;38.32;102124.22;5096753;28;866;-46
2020/12/22 06:29:43;;;;;;;;;;;;;;;19.40;39.35;102126.78;5096160;28;779;-46
2020/12/22 06:32:27;;;;;;;;;;;;;;;20.37;37.27;102120.47;5096571;28;791;-50
2020/12/22 06:34:53;;;;;;;;;;;;;;;20.39;36.92;102109.97;5096329;28;1016;-45
2020/12/22 06:37:22;;;;;;;;;;;;;;;20.12;37.66;102113.66;5096226;28;831;-45
2020/12/22 06:39:48;;;;;;;;;;;;;;;19.86;38.32;102120.09;5096690;28;781;-46
2020/12/22 06:42:29;;;;;;;;;;;;;;;19.37;39.18;102113.53;5096402;28;1906;-46
2020/12/22 06:44:55;;;;;;;;;;;;;;;20.28;37.39;102116.53;5109693;28;1121;-46
2020/12/22 06:47:38;;;;;;;;;;;;;;;20.44;36.87;102121.06;5115914;28;905;-46
2020/12/22 06:50:04;;;;;;;;;;;;;;;20.13;37.72;102120.00;5113397;28;1027;-45
2020/12/22 06:52:30;;;;;;;;;;;;;;;20.06;37.70;102117.47;5097313;28;763;-52
2020/12/22 06:54:55;;;;;;;;;;;;;;;19.35;39.46;102110.22;5100573;28;858;-49
2020/12/22 06:57:39;;;;;;;;;;;;;;;20.17;37.53;102110.94;5100361;28;779;-46
2020/12/22 07:00:05;;;;;;;;;;;;;;;20.67;36.39;102116.19;5100718;28;747;-48
2020/12/22 07:02:31;;;;;;;;;;;;;;;20.00;37.79;102111.09;5100443;28;1910;-47
2020/12/22 07:04:56;;;;;;;;;;;;;;;19.99;37.86;102119.63;5100328;28;969;-50
2020/12/22 07:07:22;;;;;;;;;;;;;;;19.26;39.41;102117.28;5099285;28;887;-46
2020/12/22 07:09:47;;;;;;;;;;;;;;;20.08;37.84;102111.72;5098654;28;839;-47
2020/12/22 07:12:19;;;;;;;;;;;;;;;20.67;36.45;102111.53;5100096;28;791;-50
2020/12/22 07:14:44;;;;;;;;;;;;;;;20.19;37.55;102113.44;5100063;28;791;-49
2020/12/22 07:17:10;;;;;;;;;;;;;;;20.15;37.50;102107.59;5100367;28;767;-46
2020/12/22 07:19:35;;;;;;;;;;;;;;;19.54;38.81;102107.06;5098442;28;1174;-49
2020/12/22 07:22:02;;;;;;;;;;;;;;;19.98;38.28;102112.47;5099537;28;1926;-46
2020/12/22 07:24:34;;;;;;;;;;;;;;;20.72;36.65;102104.38;5099804;28;819;-51
2020/12/22 07:27:00;;;;;;;;;;;;;;;20.19;37.40;102113.44;5099968;28;803;-48
2020/12/22 07:29:26;;;;;;;;;;;;;;;20.00;38.11;102111.09;5099952;28;759;-49
2020/12/22 07:31:51;;;;;;;;;;;;;;;19.61;38.63;102100.22;5099894;28;811;-48
2020/12/22 07:34:17;;;;;;;;;;;;;;;19.73;38.84;102115.81;5099815;28;787;-47
2020/12/22 07:36:42;;;;;;;;;;;;;;;20.49;36.97;102112.78;5099217;28;1008;-46
2020/12/22 07:39:11;;;;;;;;;;;;;;;20.27;37.49;102115.72;5099277;28;894;-46
2020/12/22 07:41:36;;;;;;;;;;;;;;;20.23;37.42;102117.34;5099911;28;736;-47
2020/12/22 07:44:09;;;;;;;;;;;;;;;19.58;38.96;102122.03;5105385;28;1971;-47
2020/12/22 07:46:35;;;;;;;;;;;;;;;20.03;37.96;102114.44;5119712;28;755;-46
2020/12/22 07:49:03;;;;;;;;;;;;;;;20.70;36.73;102118.44;5120003;28;775;-45
2020/12/22 07:51:29;;;;;;;;;;;;;;;20.32;37.32;102123.19;5104855;28;981;-45
2020/12/22 07:54:01;;;;;;;;;;;;;;;20.17;37.72;102116.47;5099105;28;735;-45
2020/12/22 07:56:27;;;;;;;;;;;;;;;19.63;38.61;102117.38;5099364;28;752;-45
2020/12/22 07:58:52;;;;;;;;;;;;;;;19.69;38.96;102121.00;5099008;28;782;-46
2020/12/22 08:01:18;;;;;;;;;;;;;;;20.56;36.90;102118.06;5099434;28;832;-46
2020/12/22 08:03:43;;;;;;;;;;;;;;;20.53;36.70;102113.09;5097249;28;1989;-45
2020/12/22 08:06:10;;;;;;;;;;;;;;;20.16;37.48;102116.72;5098414;28;981;-47
2020/12/22 08:08:36;;;;;;;;;;;;;;;19.94;38.03;102106.63;5098994;28;751;-46
2020/12/22 08:11:02;;;;;;;;;;;;;;;19.43;39.02;102101.47;5099138;28;910;-49
2020/12/22 08:13:29;;;;;;;;;;;;;;;19.83;38.48;102105.72;5098704;28;824;-49
2020/12/22 08:15:54;;;;;;;;;;;;;;;20.60;36.73;102102.63;5098823;28;835;-46
2020/12/22 08:18:20;;;;;;;;;;;;;;;20.25;37.34;102106.84;5098127;28;855;-46
2020/12/22 08:20:45;;;;;;;;;;;;;;;20.34;37.26;102105.25;5098365;28;1042;-48
2020/12/22 08:23:10;;;;;;;;;;;;;;;19.75;38.46;102106.16;5097088;28;1905;-47
2020/12/22 08:25:36;;;;;;;;;;;;;;;19.55;38.99;102098.53;5097871;28;743;-49
2020/12/22 08:28:01;;;;;;;;;;;;;;;20.43;37.15;102097.28;5098401;28;834;-47
2020/12/22 08:30:27;;;;;;;;;;;;;;;20.34;37.12;102105.25;5098710;28;732;-45
2020/12/22 08:32:53;;;;;;;;;;;;;;;20.04;38.00;102097.59;5098731;28;901;-45
2020/12/22 08:35:21;;;;;;;;;;;;;;;19.98;37.84;102090.38;5098065;28;961;-48
2020/12/22 08:37:47;;;;;;;;;;;;;;;19.32;39.40;102092.25;5097327;28;823;-47
2020/12/22 08:40:25;;;;;;;;;;;;;;;20.38;37.62;102091.72;5098586;28;819;-47
2020/12/22 08:42:50;;;;;;;;;;;;;;;20.93;36.27;102091.44;5098318;28;1910;-46
2020/12/22 08:45:16;;;;;;;;;;;;;;;20.97;36.16;102087.88;5113678;28;1209;-48
2020/12/22 08:47:49;;;;;;;;;;;;;;;20.48;37.06;102086.28;5118760;28;846;-45
2020/12/22 08:50:14;;;;;;;;;;;;;;;20.06;37.72;102087.09;5113965;28;964;-49
2020/12/22 08:52:40;;;;;;;;;;;;;;;19.69;38.60;102089.84;5098268;28;866;-48
2020/12/22 08:55:10;;;;;;;;;;;;;;;19.32;39.66;102088.66;5098428;28;820;-47
2020/12/22 08:57:35;;;;;;;;;;;;;;;20.18;38.03;102095.19;5097813;28;771;-49
2020/12/22 09:00:13;;;;;;;;;;;;;;;20.63;36.65;102079.97;5098153;28;747;-47
2020/12/22 09:02:38;;;;;;;;;;;;;;;20.07;37.94;102083.25;5097904;28;1909;-46
2020/12/22 09:05:11;;;;;;;;;;;;;;;19.94;38.04;102083.72;5097577;28;970;-46
2020/12/22 09:07:36;;;;;;;;;;;;;;;19.13;40.04;102072.47;5098266;28;768;-49
2020/12/22 09:10:08;;;;;;;;;;;;;;;19.72;38.65;102075.50;5097824;28;815;-45
2020/12/22 09:12:33;;;;;;;;;;;;;;;20.64;36.88;102072.53;5097681;28;867;-47
2020/12/22 09:14:59;;;;;;;;;;;;;;;20.16;37.52;102070.63;5097877;28;779;-48
2020/12/22 09:17:30;;;;;;;;;;;;;;;20.09;38.06;102077.47;5096541;28;819;-46
2020/12/22 09:19:56;;;;;;;;;;;;;;;19.61;38.87;102066.31;5097207;28;1174;-48
2020/12/22 09:22:22;;;;;;;;;;;;;;;19.62;38.93;102063.28;5097979;28;1914;-48
2020/12/22 09:25:07;;;;;;;;;;;;;;;20.64;36.77;102053.19;5097450;28;1467;-45
2020/12/22 09:27:33;;;;;;;;;;;;;;;20.04;37.92;102058.94;5097959;28;774;-47
2020/12/22 09:29:59;;;;;;;;;;;;;;;20.04;37.84;102058.94;5097586;28;787;-46
2020/12/22 09:32:24;;;;;;;;;;;;;;;19.63;38.66;102050.34;5097346;28;799;-48
2020/12/22 09:34:50;;;;;;;;;;;;;;;19.75;38.56;102045.44;5097144;28;942;-47
2020/12/22 09:37:15;;;;;;;;;;;;;;;20.71;36.67;102042.72;5097395;28;811;-48
2020/12/22 09:39:41;;;;;;;;;;;;;;;20.15;37.51;102035.81;5097061;28;755;-46
2020/12/22 09:42:06;;;;;;;;;;;;;;;20.25;37.43;102039.72;5097171;28;1914;-48
2020/12/22 09:44:32;;;;;;;;;;;;;;;19.75;38.59;102042.69;5107440;28;1122;-46
2020/12/22 09:46:58;;;;;;;;;;;;;;;19.44;39.20;102045.19;5117596;28;723;-48
2020/12/22 09:49:23;;;;;;;;;;;;;;;20.42;37.35;102034.84;5117749;28;814;-45
2020/12/22 09:51:49;;;;;;;;;;;;;;;20.37;37.32;102028.47;5099672;28;1054;-49
2020/12/22 09:54:14;;;;;;;;;;;;;;;20.13;37.62;102024.22;5097044;28;866;-49
2020/12/22 09:56:40;;;;;;;;;;;;;;;19.99;37.83;102020.25;5097276;28;802;-46
2020/12/22 09:59:06;;;;;;;;;;;;;;;19.35;39.38;102021.94;5097392;28;799;-48
2020/12/22 10:01:31;;;;;;;;;;;;;;;20.00;38.02;102030.19;5096838;28;780;-47
2020/12/22 10:03:56;;;;;;;;;;;;;;;20.53;36.72;102024.66;5096720;28;1910;-46
2020/12/22 10:06:23;;;;;;;;;;;;;;;20.12;37.73;102016.19;5092634;28;1204;-50
2020/12/22 10:08:48;;;;;;;;;;;;;;;20.27;37.45;102018.19;5088163;28;776;-46
2020/12/22 10:11:14;;;;;;;;;;;;;;;19.49;39.00;102014.91;5096383;28;1584;-50
2020/12/22 10:13:39;;;;;;;;;;;;;;;20.29;37.41;102013.25;5084821;28;1501;-45
2020/12/22 10:16:11;;;;;;;;;;;;;;;20.73;36.54;102001.81;5076403;28;748;-46
2020/12/22 10:18:37;;;;;;;;;;;;;;;20.13;37.64;101999.34;5076827;28;1472;-50
2020/12/22 10:21:03;;;;;;;;;;;;;;;20.02;38.07;102008.69;5087382;28;954;-48
2020/12/22 10:23:28;;;;;;;;;;;;;;;19.68;38.75;102008.97;5096453;28;1914;-45
2020/12/22 10:25:54;;;;;;;;;;;;;;;19.96;38.39;102010.59;5096586;28;775;-47
2020/12/22 10:28:19;;;;;;;;;;;;;;;20.60;36.79;102013.38;5096855;28;817;-45
2020/12/22 10:30:44;;;;;;;;;;;;;;;20.34;37.44;102004.97;5096462;28;843;-44
2020/12/22 10:33:10;;;;;;;;;;;;;;;20.17;37.54;102006.00;5093969;28;1498;-46
2020/12/22 10:35:36;;;;;;;;;;;;;;;19.72;38.37;102001.81;5087327;28;886;-45
2020/12/22 10:38:01;;;;;;;;;;;;;;;19.62;39.17;101996.22;5081243;28;851;-46
2020/12/22 10:40:27;;;;;;;;;;;;;;;20.58;37.05;101993.44;5078705;28;1486;-47
2020/12/22 10:42:52;;;;;;;;;;;;;;;20.32;37.44;101994.19;5086967;28;1909;-44
2020/12/22 10:45:17;;;;;;;;;;;;;;;20.14;37.55;101987.19;5109171;28;1138;-46
2020/12/22 10:47:43;;;;;;;;;;;;;;;19.80;38.56;101981.22;5102619;28;806;-47
2020/12/22 10:50:08;;;;;;;;;;;;;;;19.31;39.47;101985.78;5096235;28;977;-49
2020/12/22 10:52:34;;;;;;;;;;;;;;;20.11;37.71;101982.22;5096286;28;836;-45
2020/12/22 10:54:59;;;;;;;;;;;;;;;20.44;36.94;101993.97;5096358;28;771;-44
2020/12/22 10:57:25;;;;;;;;;;;;;;;20.06;37.84;101976.66;5096243;28;807;-47
2020/12/22 10:59:50;;;;;;;;;;;;;;;20.07;37.78;101975.56;5096293;28;759;-47
2020/12/22 11:02:16;;;;;;;;;;;;;;;19.69;38.49;101982.22;5089776;28;1891;-45
2020/12/22 11:04:42;;;;;;;;;;;;;;;20.34;37.30;101977.34;5075830;28;811;-45
2020/12/22 11:07:17;;;;;;;;;;;;;;;20.71;36.46;101975.56;5096026;28;962;-45
2020/12/22 11:09:44;;;;;;;;;;;;;;;20.11;37.57;101979.44;5095904;28;882;-47
2020/12/22 11:12:09;;;;;;;;;;;;;;;19.94;38.18;101981.59;5096269;28;846;-46
2020/12/22 11:14:35;;;;;;;;;;;;;;;19.31;39.21;101980.25;5096229;28;739;-49
2020/12/22 11:17:00;;;;;;;;;;;;;;;20.09;37.78;101980.81;5096223;28;787;-50
2020/12/22 11:19:26;;;;;;;;;;;;;;;20.60;36.86;101974.69;5095608;28;1028;-45
2020/12/22 11:21:51;;;;;;;;;;;;;;;20.13;37.75;101965.38;5095913;28;1902;-45
2020/12/22 11:24:16;;;;;;;;;;;;;;;20.00;37.86;101970.28;5086640;28;1509;-46
2020/12/22 11:26:42;;;;;;;;;;;;;;;19.48;38.85;101974.59;5077783;28;989;-44
2020/12/22 11:29:07;;;;;;;;;;;;;;;19.86;38.26;101971.03;5087193;28;859;-47
2020/12/22 11:31:33;;;;;;;;;;;;;;;20.69;36.44;101967.53;5096187;28;831;-45
2020/12/22 11:33:58;;;;;;;;;;;;;;;20.20;37.44;101959.59;5095775;28;838;-47
2020/12/22 11:36:24;;;;;;;;;;;;;;;20.11;37.81;101960.13;5095923;28;1012;-48
2020/12/22 11:38:49;;;;;;;;;;;;;;;19.48;38.97;101962.75;5079407;28;751;-47
2020/12/22 11:41:21;;;;;;;;;;;;;;;19.88;38.26;101958.63;5079370;28;792;-46
2020/12/22 11:43:47;;;;;;;;;;;;;;;20.61;36.79;101955.06;5086949;28;1971;-47
2020/12/22 11:46:12;;;;;;;;;;;;;;;20.21;37.39;101956.56;5120040;28;794;-47
2020/12/22 11:48:37;;;;;;;;;;;;;;;20.03;37.92;101957.06;5120168;28;802;-46
2020/12/22 11:51:03;;;;;;;;;;;;;;;19.64;38.56;101952.63;5108658;28;999;-45
2020/12/22 11:53:28;;;;;;;;;;;;;;;19.65;38.63;101949.59;5099448;28;763;-47
2020/12/22 11:55:54;;;;;;;;;;;;;;;20.58;36.81;101946.47;5099294;28;850;-49
2020/12/22 11:58:19;;;;;;;;;;;;;;;20.27;37.58;101951.91;5086561;28;784;-47
2020/12/22 12:00:45;;;;;;;;;;;;;;;20.10;37.66;101952.94;5079525;28;756;-46
2020/12/22 12:03:10;;;;;;;;;;;;;;;19.66;38.65;101947.69;5078752;28;1973;-47
2020/12/22 12:05:36;;;;;;;;;;;;;;;19.38;39.61;101944.19;5085979;28;950;-50
2020/12/22 12:08:01;;;;;;;;;;;;;;;20.46;37.20;101947.56;5099158;28;743;-45
2020/12/22 12:10:27;;;;;;;;;;;;;;;20.13;37.31;101938.59;5099558;28;787;-46
2020/12/22 12:12:52;;;;;;;;;;;;;;;20.08;37.90;101935.81;5099222;28;743;-47
2020/12/22 12:15:18;;;;;;;;;;;;;;;19.70;38.45;101937.78;5098957;28;755;-47
2020/12/22 12:17:43;;;;;;;;;;;;;;;19.12;39.63;101945.91;5098919;28;807;-45
2020/12/22 12:20:08;;;;;;;;;;;;;;;20.22;37.52;101935.34;5098619;28;1039;-45
2020/12/22 12:22:34;;;;;;;;;;;;;;;20.52;36.79;101940.09;5098666;28;1910;-48
2020/12/22 12:25:00;;;;;;;;;;;;;;;20.17;37.44;101938.88;5093525;28;792;-45
2020/12/22 12:27:25;;;;;;;;;;;;;;;19.95;37.90;101939.03;5078647;28;871;-48
2020/12/22 12:29:51;;;;;;;;;;;;;;;19.40;39.30;101941.16;5078402;28;744;-45
2020/12/22 12:32:16;;;;;;;;;;;;;;;20.29;37.52;101944.19;5078419;28;835;-46
2020/12/22 12:34:42;;;;;;;;;;;;;;;20.63;36.63;101943.72;5078597;28;827;-47
2020/12/22 12:37:07;;;;;;;;;;;;;;;20.21;37.36;101945.53;5098337;28;938;-44
2020/12/22 12:39:32;;;;;;;;;;;;;;;20.10;37.71;101949.34;5098769;28;767;-45
2020/12/22 12:41:58;;;;;;;;;;;;;;;19.29;39.23;101946.63;5098414;28;1917;-47
2020/12/22 12:44:23;;;;;;;;;;;;;;;19.96;38.23;101949.84;5107403;28;1184;-46
2020/12/22 12:46:51;;;;;;;;;;;;;;;20.74;36.51;101945.44;5118866;28;834;-48
2020/12/22 12:49:17;;;;;;;;;;;;;;;20.26;37.54;101948.31;5119111;28;767;-46